Time;durP1;ratioP1;P1;durP2;ratioP2;P2;SDS_P1;SDS_P2;PMS_P1;PMS_P2;Temp;Humidity;BMP_temperature;BMP_pressure;BME280_temperature;BME280_humidity;BME280_pressure;Samples;Min_cycle;Max_cycle;Signal;HPM_P1;HPM_P2
2021/10/12 00:01:13;;;;;;;14.73;8.23;;;12.00;99.90;;;;;;4953933;29;20453;-88
2021/10/12 00:03:38;;;;;;;18.25;8.45;;;12.00;99.90;;;;;;4954006;29;20377;-84
2021/10/12 00:06:04;;;;;;;14.38;9.40;;;12.00;99.90;;;;;;4954209;29;20036;-84
2021/10/12 00:08:30;;;;;;;24.58;8.95;;;12.00;99.90;;;;;;4954222;29;20465;-84
2021/10/12 00:10:55;;;;;;;22.02;8.73;;;11.90;99.90;;;;;;4953994;29;20031;-83
2021/10/12 00:13:21;;;;;;;18.65;9.57;;;11.90;99.90;;;;;;4953525;29;20035;-79
2021/10/12 00:15:47;;;;;;;14.13;9.13;;;11.80;99.90;;;;;;4953517;29;20404;-83
2021/10/12 00:18:13;;;;;;;19.38;9.07;;;11.80;99.90;;;;;;4953793;29;20027;-84
2021/10/12 00:20:38;;;;;;;16.35;8.63;;;11.80;99.90;;;;;;4952001;29;20036;-83
2021/10/12 00:23:08;;;;;;;19.23;8.80;;;11.70;99.90;;;;;;4953495;29;20035;-86
2021/10/12 00:25:34;;;;;;;15.68;9.40;;;11.70;99.90;;;;;;4951043;29;20086;-83
2021/10/12 00:27:59;;;;;;;19.70;8.82;;;11.60;99.90;;;;;;4954053;29;20489;-85
2021/10/12 00:30:25;;;;;;;18.65;9.18;;;11.60;99.90;;;;;;4953737;29;20515;-74
2021/10/12 00:32:51;;;;;;;15.52;8.25;;;11.50;99.90;;;;;;4953712;29;20051;-84
2021/10/12 00:35:17;;;;;;;18.67;8.52;;;11.50;99.90;;;;;;4952839;29;20437;-83
2021/10/12 00:37:43;;;;;;;14.38;9.63;;;11.50;99.90;;;;;;4952938;29;20031;-82
2021/10/12 00:40:09;;;;;;;25.75;11.80;;;11.50;99.90;;;;;;4953697;29;20383;-83
2021/10/12 00:42:36;;;;;;;18.67;9.52;;;11.40;99.90;;;;;;4954047;29;20042;-85
2021/10/12 00:45:04;;;;;;;19.48;9.98;;;11.40;99.90;;;;;;4953201;29;20035;-85
2021/10/12 00:47:29;;;;;;;15.70;8.05;;;11.40;99.90;;;;;;4953847;29;20484;-82
2021/10/12 00:49:55;;;;;;;14.75;8.70;;;11.40;99.90;;;;;;4952366;28;20039;-82
2021/10/12 00:52:21;;;;;;;17.52;9.73;;;11.40;99.90;;;;;;4957064;29;20023;-77
2021/10/12 00:54:47;;;;;;;13.45;8.35;;;11.40;99.90;;;;;;4956935;29;20122;-82
2021/10/12 00:57:13;;;;;;;18.60;9.45;;;11.40;99.90;;;;;;4956764;29;20027;-84
2021/10/12 00:59:40;;;;;;;17.23;9.60;;;11.40;99.90;;;;;;4938896;29;20460;-84
2021/10/12 01:02:06;;;;;;;24.25;9.88;;;11.40;99.90;;;;;;4940230;29;20035;-86
2021/10/12 01:04:32;;;;;;;16.98;8.80;;;11.40;99.90;;;;;;4957144;29;20038;-85
2021/10/12 01:06:58;;;;;;;18.00;10.77;;;11.40;99.90;;;;;;4957199;29;20035;-86
2021/10/12 01:09:23;;;;;;;16.13;9.35;;;11.40;99.90;;;;;;4957749;29;20035;-87
2021/10/12 01:11:49;;;;;;;16.25;9.27;;;11.40;99.90;;;;;;4957071;29;20031;-74
2021/10/12 01:14:15;;;;;;;20.90;9.95;;;11.40;99.90;;;;;;4957082;29;20043;-86
2021/10/12 01:16:41;;;;;;;17.13;9.13;;;11.40;99.90;;;;;;4957242;29;20063;-85
2021/10/12 01:19:09;;;;;;;24.83;10.07;;;11.30;99.90;;;;;;4957142;29;20392;-87
2021/10/12 01:21:43;;;;;;;20.15;10.57;;;11.30;99.90;;;;;;4957241;29;20389;-85
2021/10/12 01:24:10;;;;;;;19.27;9.85;;;11.40;99.90;;;;;;4956941;29;20027;-85
2021/10/12 01:26:36;;;;;;;16.92;9.10;;;11.30;99.90;;;;;;4957057;29;20412;-86
2021/10/12 01:29:06;;;;;;;17.65;9.32;;;11.20;99.90;;;;;;4956985;29;20114;-83
2021/10/12 01:31:31;;;;;;;15.57;9.77;;;11.20;99.90;;;;;;4956854;29;20035;-85
2021/10/12 01:33:58;;;;;;;14.35;8.48;;;11.10;99.90;;;;;;4956737;29;20045;-86
2021/10/12 01:36:24;;;;;;;16.23;9.52;;;11.10;99.90;;;;;;4956949;29;20561;-87
2021/10/12 01:38:49;;;;;;;22.30;9.73;;;11.10;99.90;;;;;;4956729;29;20066;-87
2021/10/12 01:41:16;;;;;;;22.35;9.35;;;11.00;99.90;;;;;;4955729;29;20477;-84
2021/10/12 01:43:42;;;;;;;22.20;9.45;;;11.00;99.90;;;;;;4955465;28;20396;-85
2021/10/12 01:46:08;;;;;;;17.70;9.32;;;11.00;99.90;;;;;;4955534;29;20512;-86
2021/10/12 01:48:35;;;;;;;15.35;9.07;;;11.00;99.90;;;;;;4955075;29;20093;-84
2021/10/12 01:51:02;;;;;;;20.92;8.93;;;11.00;99.90;;;;;;4955547;29;20114;-81
2021/10/12 01:53:28;;;;;;;15.15;9.20;;;11.00;99.90;;;;;;4956401;29;20027;-85
2021/10/12 01:55:54;;;;;;;15.27;9.00;;;11.00;99.90;;;;;;4956455;29;20066;-86
2021/10/12 01:58:20;;;;;;;16.70;9.43;;;11.10;99.90;;;;;;4956077;29;20428;-86
2021/10/12 02:00:45;;;;;;;16.65;9.23;;;11.10;99.90;;;;;;4956340;28;20035;-84
2021/10/12 02:03:11;;;;;;;21.38;9.13;;;11.10;99.90;;;;;;4955635;29;20043;-85
2021/10/12 02:05:37;;;;;;;17.27;9.63;;;11.10;99.90;;;;;;4956282;29;20428;-84
2021/10/12 02:08:03;;;;;;;28.63;9.77;;;11.10;99.90;;;;;;4956139;29;20063;-83
2021/10/12 02:10:29;;;;;;;16.20;9.48;;;11.10;99.90;;;;;;4955737;29;20493;-85
2021/10/12 02:12:54;;;;;;;15.57;8.50;;;11.10;99.90;;;;;;4955954;29;20078;-84
2021/10/12 02:15:20;;;;;;;22.98;9.70;;;11.10;99.90;;;;;;4955844;29;20507;-83
2021/10/12 02:17:47;;;;;;;18.48;8.07;;;11.20;99.90;;;;;;4956160;29;20039;-87
2021/10/12 02:20:13;;;;;;;13.27;8.43;;;11.20;99.90;;;;;;4941657;29;20349;-84
2021/10/12 02:22:39;;;;;;;14.90;9.38;;;11.20;99.90;;;;;;4956083;29;20036;-88
2021/10/12 02:25:07;;;;;;;18.00;8.45;;;11.20;99.90;;;;;;4956519;29;20031;-89
2021/10/12 02:27:33;;;;;;;15.55;7.88;;;11.20;99.90;;;;;;4956294;29;20029;-86
2021/10/12 02:29:59;;;;;;;18.27;8.30;;;11.20;99.90;;;;;;4956330;29;20045;-89
2021/10/12 02:32:24;;;;;;;18.60;8.57;;;11.20;99.90;;;;;;4956313;29;20042;-88
2021/10/12 02:34:50;;;;;;;11.55;7.15;;;11.30;99.90;;;;;;4955389;29;20047;-84
2021/10/12 02:37:16;;;;;;;21.17;7.70;;;11.30;99.90;;;;;;4955045;29;20110;-84
2021/10/12 02:39:42;;;;;;;17.27;8.55;;;11.30;99.90;;;;;;4954979;29;20050;-84
2021/10/12 02:42:08;;;;;;;11.52;7.80;;;11.40;99.90;;;;;;4955278;29;20027;-83
2021/10/12 02:44:34;;;;;;;15.23;7.85;;;11.50;99.90;;;;;;4955607;29;20432;-86
2021/10/12 02:47:00;;;;;;;18.58;8.35;;;11.50;99.90;;;;;;4954979;28;20131;-83
2021/10/12 02:49:26;;;;;;;13.95;8.43;;;11.50;99.90;;;;;;4955511;29;20039;-85
2021/10/12 02:51:51;;;;;;;13.15;8.07;;;11.50;99.90;;;;;;4955155;29;20035;-84
2021/10/12 02:54:17;;;;;;;14.48;7.57;;;11.50;99.90;;;;;;4955285;29;20043;-86
2021/10/12 02:56:43;;;;;;;17.02;8.43;;;11.50;99.90;;;;;;4955163;29;20038;-84
2021/10/12 02:59:09;;;;;;;16.77;8.20;;;11.40;99.90;;;;;;4954536;29;20047;-84
2021/10/12 03:01:35;;;;;;;13.30;8.57;;;11.40;99.90;;;;;;4954734;29;20114;-83
2021/10/12 03:04:00;;;;;;;13.20;7.20;;;11.40;99.90;;;;;;4954590;29;20053;-79
2021/10/12 03:06:26;;;;;;;14.35;7.82;;;11.40;99.90;;;;;;4954434;29;20072;-85
2021/10/12 03:08:52;;;;;;;12.02;7.85;;;11.40;99.90;;;;;;4954549;29;20111;-84
2021/10/12 03:11:18;;;;;;;17.58;7.95;;;11.50;99.90;;;;;;4954871;29;20404;-80
2021/10/12 03:13:44;;;;;;;13.20;8.20;;;11.40;99.90;;;;;;4954248;28;20053;-84
2021/10/12 03:16:10;;;;;;;14.68;7.85;;;11.50;99.90;;;;;;4954855;29;20027;-85
2021/10/12 03:18:36;;;;;;;13.85;7.57;;;11.50;99.90;;;;;;4954726;29;20114;-84
2021/10/12 03:21:03;;;;;;;17.25;8.15;;;11.50;99.90;;;;;;4954277;29;20034;-83
2021/10/12 03:23:29;;;;;;;14.77;7.82;;;11.50;99.90;;;;;;4953852;29;20038;-85
2021/10/12 03:25:55;;;;;;;18.63;7.40;;;11.50;99.90;;;;;;4953543;29;20028;-84
2021/10/12 03:28:20;;;;;;;15.45;7.85;;;11.50;99.90;;;;;;4954514;29;20043;-82
2021/10/12 03:30:46;;;;;;;14.77;7.93;;;11.40;99.90;;;;;;4954236;29;20122;-82
2021/10/12 03:33:14;;;;;;;17.73;7.53;;;11.50;99.90;;;;;;4954705;29;20102;-80
2021/10/12 03:35:46;;;;;;;14.15;7.30;;;11.50;99.90;;;;;;4954340;29;20484;-76
2021/10/12 03:38:12;;;;;;;;;;;11.50;99.90;;;;;;4953551;29;20023;-73
2021/10/12 03:40:38;;;;;;;12.45;7.30;;;11.50;99.90;;;;;;4952923;29;19914;-83
2021/10/12 03:43:04;;;;;;;15.52;7.15;;;11.50;99.90;;;;;;4954016;29;20035;-84
2021/10/12 03:45:30;;;;;;;13.35;7.60;;;11.50;99.90;;;;;;4954212;29;20035;-83
2021/10/12 03:47:55;;;;;;;14.82;7.68;;;11.50;99.90;;;;;;4954924;29;20043;-85
2021/10/12 03:50:21;;;;;;;18.58;8.38;;;11.50;99.90;;;;;;4953940;29;20031;-83
2021/10/12 03:52:47;;;;;;;10.80;7.57;;;11.50;99.90;;;;;;4954605;29;20031;-84
2021/10/12 03:55:13;;;;;;;13.75;8.15;;;11.50;99.90;;;;;;4936983;29;20078;-83
2021/10/12 03:57:39;;;;;;;18.27;8.05;;;11.40;99.90;;;;;;4954174;29;20019;-86
2021/10/12 04:00:06;;;;;;;12.00;7.80;;;11.50;99.90;;;;;;4937446;29;20494;-85
2021/10/12 04:02:32;;;;;;;16.02;9.00;;;11.50;99.90;;;;;;4953986;29;20039;-84
2021/10/12 04:04:58;;;;;;;16.35;7.30;;;11.40;99.90;;;;;;4954531;29;20444;-86
2021/10/12 04:07:23;;;;;;;17.83;8.05;;;11.40;99.90;;;;;;4954289;28;20126;-83
2021/10/12 04:09:49;;;;;;;17.75;7.85;;;11.40;99.90;;;;;;4954058;28;20106;-82
2021/10/12 04:12:15;;;;;;;14.18;7.95;;;11.50;99.90;;;;;;4954542;29;20460;-79
2021/10/12 04:14:41;;;;;;;18.63;7.47;;;11.50;99.90;;;;;;4954133;29;20039;-84
2021/10/12 04:17:06;;;;;;;17.60;7.63;;;11.60;99.90;;;;;;4954457;29;20024;-75
2021/10/12 04:19:32;;;;;;;26.40;8.32;;;11.50;99.90;;;;;;4954227;29;20031;-87
2021/10/12 04:21:58;;;;;;;13.93;6.95;;;11.50;99.90;;;;;;4954506;29;20118;-84
2021/10/12 04:24:24;;;;;;;11.45;6.70;;;11.60;99.90;;;;;;4953893;28;20039;-86
2021/10/12 04:26:50;;;;;;;17.90;8.10;;;11.50;99.90;;;;;;4957557;29;20035;-87
2021/10/12 04:29:16;;;;;;;18.48;7.40;;;11.50;99.90;;;;;;4958337;29;20098;-84
2021/10/12 04:31:42;;;;;;;11.88;7.53;;;11.40;99.90;;;;;;4958676;29;20037;-87
2021/10/12 04:34:09;;;;;;;10.10;7.28;;;11.30;99.90;;;;;;4958659;29;20043;-87
2021/10/12 04:36:35;;;;;;;26.42;7.53;;;11.30;99.90;;;;;;4958685;29;20465;-85
2021/10/12 04:39:00;;;;;;;18.83;7.80;;;11.20;99.90;;;;;;4957599;29;20042;-78
2021/10/12 04:41:26;;;;;;;15.55;7.68;;;11.30;99.90;;;;;;4957140;29;20035;-82
2021/10/12 04:43:52;;;;;;;16.70;8.15;;;11.30;99.90;;;;;;4957748;29;20091;-87
2021/10/12 04:46:18;;;;;;;14.75;7.47;;;11.20;99.90;;;;;;4958295;29;20039;-88
2021/10/12 04:48:44;;;;;;;19.52;8.57;;;11.20;99.90;;;;;;4958425;29;20661;-82
2021/10/12 04:51:10;;;;;;;25.77;8.40;;;11.10;99.90;;;;;;4957296;29;20031;-84
2021/10/12 04:53:35;;;;;;;21.15;8.50;;;11.20;99.90;;;;;;4957194;29;20039;-85
2021/10/12 04:56:01;;;;;;;17.10;8.27;;;11.20;99.90;;;;;;4957420;29;20058;-82
2021/10/12 04:58:27;;;;;;;15.80;8.23;;;11.20;99.90;;;;;;4956993;29;20102;-79
2021/10/12 05:00:53;;;;;;;15.20;7.50;;;11.20;99.90;;;;;;4956587;29;20110;-75
2021/10/12 05:03:18;;;;;;;16.80;7.55;;;11.20;99.90;;;;;;4956765;29;20062;-79
2021/10/12 05:05:44;;;;;;;22.13;7.78;;;11.30;99.90;;;;;;4956771;29;20038;-79
2021/10/12 05:08:10;;;;;;;20.85;7.55;;;11.30;99.90;;;;;;4956533;29;20035;-81
2021/10/12 05:10:35;;;;;;;11.45;7.78;;;11.20;99.90;;;;;;4956642;29;20031;-80
2021/10/12 05:13:01;;;;;;;14.25;7.75;;;11.30;99.90;;;;;;4939741;29;20408;-79
2021/10/12 05:15:28;;;;;;;19.80;7.78;;;11.30;99.90;;;;;;4956830;29;20397;-79
2021/10/12 05:17:56;;;;;;;21.15;6.75;;;11.30;99.90;;;;;;4956683;29;20059;-75
2021/10/12 05:20:21;;;;;;;15.20;6.93;;;11.40;99.90;;;;;;4956828;29;20055;-82
2021/10/12 05:22:47;;;;;;;17.30;7.00;;;11.50;99.90;;;;;;4956566;29;20511;-80
2021/10/12 05:25:14;;;;;;;19.05;7.53;;;11.50;99.90;;;;;;4956224;29;20036;-79
2021/10/12 05:27:40;;;;;;;12.32;7.68;;;11.60;99.90;;;;;;4956494;29;20027;-78
2021/10/12 05:30:08;;;;;;;15.50;7.72;;;11.50;99.90;;;;;;4956459;29;20031;-74
2021/10/12 05:32:37;;;;;;;13.88;7.75;;;11.60;99.90;;;;;;4943486;29;20019;-75
2021/10/12 05:35:05;;;;;;;16.02;7.82;;;11.60;99.90;;;;;;4956416;29;20126;-76
2021/10/12 05:37:31;;;;;;;15.93;7.50;;;11.70;99.90;;;;;;4955767;28;20050;-75
2021/10/12 05:39:57;;;;;;;12.70;6.88;;;11.80;99.90;;;;;;4956153;29;20038;-75
2021/10/12 05:42:23;;;;;;;21.52;7.60;;;11.80;99.90;;;;;;4938857;29;20476;-75
2021/10/12 05:44:49;;;;;;;15.98;7.85;;;11.90;99.90;;;;;;4956487;28;20034;-75
2021/10/12 05:47:14;;;;;;;11.93;7.00;;;12.30;99.90;;;;;;4956138;28;20071;-78
2021/10/12 05:49:41;;;;;;;16.65;6.63;;;12.80;99.90;;;;;;4956070;29;20031;-75
2021/10/12 05:52:08;;;;;;;12.05;6.63;;;13.30;99.90;;;;;;4955961;29;20031;-74
2021/10/12 05:54:38;;;;;;;10.70;6.72;;;13.70;99.90;;;;;;4955970;29;20035;-74
2021/10/12 05:57:05;;;;;;;15.18;7.30;;;13.80;99.90;;;;;;4956196;29;20030;-75
2021/10/12 05:59:32;;;;;;;11.27;6.18;;;13.80;99.90;;;;;;4956189;29;20172;-74
2021/10/12 06:01:58;;;;;;;12.10;7.05;;;13.70;99.90;;;;;;4955841;29;20054;-74
2021/10/12 06:04:24;;;;;;;16.48;8.13;;;13.80;99.90;;;;;;4955635;29;20472;-75
2021/10/12 06:06:49;;;;;;;22.25;7.13;;;13.70;99.90;;;;;;4955742;29;20170;-74
2021/10/12 06:09:15;;;;;;;11.65;6.72;;;13.60;99.90;;;;;;4956123;29;20038;-74
2021/10/12 06:11:41;;;;;;;13.88;7.63;;;13.70;99.90;;;;;;4955334;29;20034;-74
2021/10/12 06:14:06;;;;;;;16.13;7.38;;;13.70;99.90;;;;;;4955734;29;20043;-75
2021/10/12 06:16:32;;;;;;;20.75;6.57;;;13.80;99.90;;;;;;4955844;29;20059;-74
2021/10/12 06:18:58;;;;;;;15.48;7.63;;;13.90;99.90;;;;;;4955972;29;20471;-75
2021/10/12 06:21:24;;;;;;;17.35;6.80;;;14.20;99.90;;;;;;4955385;29;20058;-75
2021/10/12 06:23:49;;;;;;;13.13;7.32;;;14.50;99.90;;;;;;4955602;29;20043;-74
2021/10/12 06:26:15;;;;;;;15.48;6.82;;;15.00;99.90;;;;;;4955173;29;20035;-75
2021/10/12 06:28:41;;;;;;;14.38;8.00;;;15.50;99.90;;;;;;4955366;29;20086;-76
2021/10/12 06:31:07;;;;;;;9.77;6.35;;;16.10;99.90;;;;;;4955657;29;20028;-75
2021/10/12 06:33:33;;;;;;;12.15;6.28;;;16.90;99.90;;;;;;4955307;29;20035;-75
2021/10/12 06:35:59;;;;;;;13.27;6.43;;;17.60;99.90;;;;;;4955078;29;20046;-76
2021/10/12 06:38:25;;;;;;;9.45;6.05;;;18.00;99.90;;;;;;4954874;29;20109;-75
2021/10/12 06:40:51;;;;;;;8.18;6.15;;;18.20;99.90;;;;;;4955212;29;20042;-75
2021/10/12 06:43:17;;;;;;;12.48;5.88;;;18.20;99.90;;;;;;4954734;29;20126;-75
2021/10/12 06:45:44;;;;;;;13.98;6.53;;;17.80;99.90;;;;;;4955107;29;20150;-73
2021/10/12 06:48:10;;;;;;;11.60;6.38;;;17.50;99.90;;;;;;4954488;28;20039;-75
2021/10/12 06:50:36;;;;;;;16.02;6.28;;;17.10;99.90;;;;;;4954562;29;20090;-74
2021/10/12 06:53:03;;;;;;;10.10;6.65;;;16.90;99.90;;;;;;4955069;29;20031;-73
2021/10/12 06:55:29;;;;;;;13.07;6.35;;;16.80;99.90;;;;;;4955184;29;20051;-74
2021/10/12 06:57:55;;;;;;;10.68;6.53;;;16.80;99.90;;;;;;4954988;29;20070;-75
2021/10/12 07:00:21;;;;;;;12.82;6.65;;;16.80;99.90;;;;;;4955392;29;20126;-75
2021/10/12 07:02:47;;;;;;;14.02;6.15;;;16.90;99.90;;;;;;4954857;29;20041;-74
2021/10/12 07:05:14;;;;;;;12.45;5.95;;;16.90;99.90;;;;;;4954869;29;20031;-75
2021/10/12 07:07:40;;;;;;;20.88;7.03;;;17.00;99.90;;;;;;4937697;29;20035;-75
2021/10/12 07:10:08;;;;;;;13.05;5.75;;;17.20;99.90;;;;;;4954644;29;20547;-76
2021/10/12 07:12:34;;;;;;;15.70;6.30;;;17.50;99.90;;;;;;4937269;29;20042;-76
2021/10/12 07:15:00;;;;;;;16.98;8.35;;;17.80;99.90;;;;;;4954414;29;20051;-74
2021/10/12 07:17:26;;;;;;;11.65;6.68;;;18.60;99.90;;;;;;4954133;29;20063;-75
2021/10/12 07:19:52;;;;;;;17.52;6.93;;;19.60;98.90;;;;;;4954389;29;20073;-74
2021/10/12 07:22:23;;;;;;;13.82;5.82;;;21.00;98.30;;;;;;4954551;29;20035;-74
2021/10/12 07:24:53;;;;;;;10.75;5.70;;;22.30;96.70;;;;;;4954328;29;20057;-74
2021/10/12 07:27:19;;;;;;;11.52;5.32;;;23.50;94.00;;;;;;4954636;29;20053;-75
2021/10/12 07:29:46;;;;;;;8.13;5.07;;;24.40;92.00;;;;;;4954383;29;20520;-75
2021/10/12 07:32:13;;;;;;;10.85;6.35;;;24.90;90.70;;;;;;4954124;29;20444;-74
2021/10/12 07:34:39;;;;;;;11.25;5.30;;;25.40;89.50;;;;;;4955536;29;20031;-74
2021/10/12 07:37:04;;;;;;;10.07;4.47;;;25.30;88.40;;;;;;4953679;29;20050;-75
2021/10/12 07:39:30;;;;;;;13.90;4.95;;;25.40;87.70;;;;;;4953564;29;20369;-75
2021/10/12 07:41:56;;;;;;;6.10;4.18;;;25.60;85.50;;;;;;4953649;29;20034;-75
2021/10/12 07:44:21;;;;;;;15.38;4.47;;;25.50;84.20;;;;;;4953647;29;20528;-75
2021/10/12 07:46:47;;;;;;;7.88;4.13;;;25.30;85.80;;;;;;4953774;29;20039;-75
2021/10/12 07:49:13;;;;;;;11.77;4.60;;;25.40;84.90;;;;;;4953899;29;20055;-75
2021/10/12 07:51:39;;;;;;;6.43;3.72;;;25.50;83.90;;;;;;4953721;29;20050;-76
2021/10/12 07:54:10;;;;;;;8.75;4.15;;;25.50;83.60;;;;;;4936278;29;20035;-76
2021/10/12 07:56:36;;;;;;;11.05;4.72;;;25.30;83.90;;;;;;4949571;28;20030;-74
2021/10/12 07:59:07;;;;;;;24.83;5.43;;;25.50;83.90;;;;;;4950095;28;20705;-75
2021/10/12 08:01:33;;;;;;;10.02;4.75;;;25.40;85.30;;;;;;4946525;29;20035;-75
2021/10/12 08:04:00;;;;;;;13.18;5.22;;;25.20;85.80;;;;;;4957778;29;20063;-75
2021/10/12 08:06:27;;;;;;;20.40;4.70;;;24.90;86.20;;;;;;4962255;28;20035;-75
2021/10/12 08:08:53;;;;;;;13.35;4.82;;;24.70;86.00;;;;;;4956256;29;20050;-75
2021/10/12 08:11:23;;;;;;;15.40;4.22;;;24.70;86.40;;;;;;4957660;29;20035;-75
2021/10/12 08:13:51;;;;;;;8.15;4.03;;;24.70;85.40;;;;;;4957262;29;20557;-74
2021/10/12 08:16:20;;;;;;;12.02;4.55;;;24.70;84.40;;;;;;4957525;29;20039;-74
2021/10/12 08:18:46;;;;;;;14.73;4.18;;;24.60;85.30;;;;;;4939388;29;20503;-75
2021/10/12 08:21:12;;;;;;;11.07;4.28;;;24.50;85.20;;;;;;4956842;29;20039;-75
2021/10/12 08:23:38;;;;;;;12.63;4.88;;;24.60;85.40;;;;;;4957490;29;20023;-75
2021/10/12 08:26:04;;;;;;;20.40;4.30;;;24.70;84.90;;;;;;4957609;29;20395;-74
2021/10/12 08:28:29;;;;;;;26.85;5.72;;;24.70;84.60;;;;;;4956786;29;20042;-74
2021/10/12 08:30:55;;;;;;;12.98;5.13;;;24.70;84.90;;;;;;4954946;29;20118;-75
2021/10/12 08:33:21;;;;;;;20.70;5.20;;;24.60;84.60;;;;;;4936810;29;20499;-75
2021/10/12 08:35:46;;;;;;;8.10;4.03;;;24.60;83.40;;;;;;4953852;29;20706;-76
2021/10/12 08:38:18;;;;;;;9.40;4.10;;;24.40;83.60;;;;;;4955961;29;20056;-74
2021/10/12 08:40:45;;;;;;;11.05;4.15;;;24.40;83.90;;;;;;4956924;29;20028;-74
2021/10/12 08:43:10;;;;;;;34.40;5.20;;;24.20;83.30;;;;;;4956776;29;20058;-74
2021/10/12 08:45:39;;;;;;;14.68;4.68;;;24.10;84.10;;;;;;4956174;29;20480;-75
2021/10/12 08:48:06;;;;;;;9.38;4.38;;;24.40;84.30;;;;;;4956851;29;20039;-74
2021/10/12 08:50:33;;;;;;;6.30;3.70;;;25.50;81.10;;;;;;4956272;29;20027;-74
2021/10/12 08:53:01;;;;;;;12.18;4.30;;;27.10;77.50;;;;;;4956460;29;20349;-75
2021/10/12 08:55:28;;;;;;;13.43;3.40;;;28.60;76.60;;;;;;4939056;29;20066;-75
2021/10/12 08:57:54;;;;;;;11.70;3.70;;;29.10;72.50;;;;;;4956326;29;20114;-75
2021/10/12 09:00:21;;;;;;;10.15;3.15;;;28.50;72.40;;;;;;4956173;29;20501;-74
2021/10/12 09:05:53;;;;;;;4.60;3.20;;;26.30;71.50;;;;;;4956130;29;20390;-74
2021/10/12 09:08:27;;;;;;;6.05;3.28;;;25.40;74.40;;;;;;4938830;29;20035;-74
2021/10/12 09:10:54;;;;;;;14.10;5.75;;;25.10;76.00;;;;;;4938074;29;20039;-73
2021/10/12 09:13:20;;;;;;;7.20;3.60;;;25.20;77.70;;;;;;4955091;29;20026;-73
2021/10/12 09:16:09;;;;;;;7.38;3.38;;;24.70;74.80;;;;;;4937786;29;20121;-73
2021/10/12 09:18:52;;;;;;;3.85;3.15;;;23.70;76.20;;;;;;4951620;29;20025;-73
2021/10/12 09:21:38;;;;;;;12.95;3.45;;;23.20;77.30;;;;;;4954400;29;20473;-74
2021/10/12 09:24:13;;;;;;;6.20;3.10;;;23.40;77.80;;;;;;4949530;29;20063;-73
2021/10/12 09:26:54;;;;;;;6.38;3.50;;;23.60;77.90;;;;;;4934505;29;20031;-73
2021/10/12 09:29:28;;;;;;;16.17;4.85;;;23.80;79.60;;;;;;4952825;29;20031;-74
2021/10/12 09:31:56;;;;;;;8.52;5.18;;;24.00;82.50;;;;;;4955612;29;20028;-74
2021/10/12 09:34:23;;;;;;;10.73;5.50;;;24.50;82.70;;;;;;4938451;29;20102;-74
2021/10/12 09:36:50;;;;;;;14.32;5.30;;;24.80;82.60;;;;;;4954395;29;20486;-73
2021/10/12 09:39:18;;;;;;;22.30;5.03;;;24.60;83.40;;;;;;4953499;29;20070;-73
2021/10/12 09:41:55;;;;;;;17.55;5.43;;;24.30;85.40;;;;;;4956396;28;20027;-73
2021/10/12 09:44:21;;;;;;;10.35;4.80;;;24.00;84.90;;;;;;4957393;28;20027;-75
2021/10/12 09:46:52;;;;;;;12.77;4.55;;;23.80;85.20;;;;;;4937563;29;20085;-75
2021/10/12 09:49:23;;;;;;;15.07;4.95;;;23.70;84.20;;;;;;4937005;29;20038;-74
2021/10/12 09:52:10;;;;;;;7.40;4.20;;;23.60;83.70;;;;;;4952616;29;20054;-73
2021/10/12 09:54:52;;;;;;;10.85;5.00;;;23.70;83.30;;;;;;4955119;29;20291;-74
2021/10/12 09:57:20;;;;;;;7.05;3.95;;;23.80;83.40;;;;;;4950946;29;20062;-74
2021/10/12 09:59:46;;;;;;;5.95;3.10;;;23.70;80.40;;;;;;4954532;29;20039;-74
2021/10/12 10:02:20;;;;;;;6.03;3.20;;;23.70;80.10;;;;;;4954366;29;20082;-74
2021/10/12 10:04:47;;;;;;;7.80;2.97;;;23.50;78.50;;;;;;4954309;29;20043;-74
2021/10/12 10:07:43;;;;;;;6.97;2.75;;;23.10;79.20;;;;;;4953567;29;20054;-75
2021/10/12 10:10:09;;;;;;;6.13;2.80;;;22.80;78.50;;;;;;4953930;29;20050;-74
2021/10/12 10:12:35;;;;;;;13.75;3.53;;;22.60;78.60;;;;;;4954401;29;20023;-74
2021/10/12 10:15:03;;;;;;;4.30;3.17;;;22.70;78.90;;;;;;4937334;29;20488;-73
2021/10/12 10:17:29;;;;;;;3.88;2.60;;;22.80;80.50;;;;;;4954839;29;20031;-74
2021/10/12 10:19:56;;;;;;;5.93;2.88;;;22.90;77.70;;;;;;4953364;29;20087;-74
2021/10/12 10:22:40;;;;;;;9.10;2.97;;;22.90;78.10;;;;;;4953621;28;20027;-73
2021/10/12 10:25:29;;;;;;;4.78;2.90;;;22.90;78.60;;;;;;4954222;29;20042;-73
2021/10/12 10:27:57;;;;;;;3.72;2.85;;;22.70;76.60;;;;;;4953655;29;20039;-74
2021/10/12 10:30:30;;;;;;;6.75;3.55;;;22.20;77.40;;;;;;4953833;29;20045;-74
2021/10/12 10:33:02;;;;;;;6.30;3.10;;;21.90;77.70;;;;;;4953815;29;20027;-74
2021/10/12 10:35:46;;;;;;;7.47;3.15;;;21.60;78.80;;;;;;4953380;29;20035;-74
2021/10/12 10:38:21;;;;;;;5.65;3.63;;;21.20;79.20;;;;;;4953346;29;20029;-73
2021/10/12 10:41:05;;;;;;;9.85;4.78;;;21.00;79.40;;;;;;4953335;29;20031;-73
2021/10/12 10:43:49;;;;;;;6.65;4.60;;;20.70;81.00;;;;;;4935679;29;20118;-73
2021/10/12 10:46:34;;;;;;;5.70;3.03;;;20.30;81.40;;;;;;4953326;29;20629;-73
2021/10/12 10:49:21;;;;;;;6.50;3.72;;;20.10;80.70;;;;;;4952632;29;20039;-73
2021/10/12 10:51:52;;;;;;;9.38;3.50;;;20.10;82.40;;;;;;4951892;28;20032;-73
2021/10/12 10:54:36;;;;;;;15.85;4.20;;;20.10;82.20;;;;;;4953095;28;20031;-73
2021/10/12 10:57:15;;;;;;;11.30;3.45;;;20.10;82.60;;;;;;4953143;29;20063;-72
2021/10/12 10:59:41;;;;;;;4.55;3.30;;;20.10;83.10;;;;;;4935194;29;20077;-73
2021/10/12 11:02:25;;;;;;;10.90;3.13;;;20.20;82.80;;;;;;4935334;29;20041;-73
2021/10/12 11:04:55;;;;;;;10.00;3.80;;;20.10;83.50;;;;;;4953030;29;20042;-74
2021/10/12 11:07:23;;;;;;;6.75;3.47;;;20.20;83.60;;;;;;4953013;29;20039;-72
2021/10/12 11:09:49;;;;;;;15.38;3.60;;;20.30;83.40;;;;;;4933878;29;20023;-73
2021/10/12 11:12:23;;;;;;;6.28;3.67;;;20.30;83.30;;;;;;4950903;29;20440;-73
2021/10/12 11:14:49;;;;;;;9.48;5.47;;;20.40;83.60;;;;;;4953178;29;20042;-73
2021/10/12 11:17:15;;;;;;;5.60;4.40;;;20.20;83.80;;;;;;4953190;29;20531;-72
2021/10/12 11:19:58;;;;;;;8.57;3.95;;;20.10;86.20;;;;;;4953166;29;20038;-74
2021/10/12 11:22:25;;;;;;;6.78;3.88;;;20.10;84.90;;;;;;4953355;29;20027;-73
2021/10/12 11:24:51;;;;;;;6.13;3.75;;;20.00;85.40;;;;;;4951938;29;20164;-73
2021/10/12 11:27:17;;;;;;;6.30;4.05;;;19.90;85.40;;;;;;4952273;28;20031;-74
2021/10/12 11:29:43;;;;;;;9.85;3.97;;;20.00;85.70;;;;;;4952768;29;20105;-73
2021/10/12 11:32:09;;;;;;;6.90;5.22;;;20.00;86.80;;;;;;4952691;29;20031;-74
2021/10/12 11:34:35;;;;;;;7.07;4.32;;;20.00;86.50;;;;;;4952555;29;20489;-74
2021/10/12 11:37:12;;;;;;;5.30;3.63;;;20.00;86.50;;;;;;4953216;29;20106;-74
2021/10/12 11:39:38;;;;;;;6.15;3.85;;;20.00;86.00;;;;;;4953560;29;20067;-74
2021/10/12 11:42:06;;;;;;;11.48;4.20;;;19.90;86.40;;;;;;4934261;29;20035;-73
2021/10/12 11:44:33;;;;;;;7.03;3.90;;;19.80;87.30;;;;;;4949786;29;20052;-74
2021/10/12 11:47:02;;;;;;;4.85;3.55;;;19.60;86.30;;;;;;4952523;29;20412;-73
2021/10/12 11:49:39;;;;;;;25.08;3.42;;;19.50;87.40;;;;;;4953159;29;20106;-73
2021/10/12 11:52:08;;;;;;;14.50;3.75;;;19.50;87.40;;;;;;4953267;29;20023;-73
2021/10/12 11:54:34;;;;;;;5.80;3.75;;;19.40;88.10;;;;;;4952973;29;20086;-73
2021/10/12 11:57:02;;;;;;;4.88;3.53;;;19.30;88.70;;;;;;4953217;29;20098;-73
2021/10/12 11:59:34;;;;;;;6.93;4.50;;;19.20;88.70;;;;;;4952308;29;20043;-73
2021/10/12 12:02:04;;;;;;;6.40;3.70;;;19.20;89.60;;;;;;4952288;29;20031;-74
2021/10/12 12:04:33;;;;;;;7.07;4.28;;;18.90;89.80;;;;;;4951868;29;20533;-73
2021/10/12 12:07:03;;;;;;;5.32;3.88;;;18.80;90.20;;;;;;4952466;29;20067;-73
2021/10/12 12:09:31;;;;;;;6.80;4.38;;;18.80;90.10;;;;;;4952646;29;20090;-74
2021/10/12 12:11:59;;;;;;;6.32;4.40;;;18.70;90.60;;;;;;4952304;29;20034;-74
2021/10/12 12:14:27;;;;;;;9.63;4.43;;;18.70;90.30;;;;;;4951697;29;20036;-73
2021/10/12 12:17:17;;;;;;;11.55;5.50;;;18.70;89.90;;;;;;4950415;29;20152;-74
2021/10/12 12:19:53;;;;;;;10.48;4.45;;;18.50;90.50;;;;;;4934298;29;20126;-75
2021/10/12 12:22:30;;;;;;;9.68;4.20;;;18.50;90.50;;;;;;4920772;29;20042;-75
2021/10/12 12:25:06;;;;;;;5.80;3.70;;;18.40;90.20;;;;;;4940505;29;20374;-74
2021/10/12 12:27:54;;;;;;;6.72;4.05;;;18.30;90.40;;;;;;4932848;29;20043;-73
2021/10/12 12:30:35;;;;;;;10.27;4.13;;;18.30;90.50;;;;;;4949544;29;20777;-73
2021/10/12 12:33:01;;;;;;;7.68;4.50;;;18.30;90.60;;;;;;4941937;29;20031;-72
2021/10/12 12:35:27;;;;;;;6.68;3.78;;;18.30;90.70;;;;;;4925802;29;20039;-74
2021/10/12 12:38:02;;;;;;;7.15;3.90;;;18.30;92.10;;;;;;4948204;29;20543;-72
2021/10/12 12:40:34;;;;;;;7.38;4.57;;;18.40;90.70;;;;;;4951334;29;20050;-74
2021/10/12 12:43:17;;;;;;;11.93;5.22;;;18.40;90.50;;;;;;4946500;29;20026;-72
2021/10/12 12:45:43;;;;;;;7.93;4.10;;;18.20;90.70;;;;;;4952753;28;20387;-73
2021/10/12 12:48:09;;;;;;;12.30;4.93;;;18.20;91.00;;;;;;4956861;28;20102;-73